Time;durP1;ratioP1;P1;durP2;ratioP2;P2;SDS_P1;SDS_P2;PMS_P1;PMS_P2;Temp;Humidity;BMP_temperature;BMP_pressure;BME280_temperature;BME280_humidity;BME280_pressure;Samples;Min_cycle;Max_cycle;Signal;HPM_P1;HPM_P2
2022/11/26 00:02:22;;;;;;;18.77;11.68;;;16.00;70.10;;;;;;4982276;28;20130;-16
2022/11/26 00:04:48;;;;;;;21.70;11.82;;;16.00;69.80;;;;;;4985756;28;20061;-17
2022/11/26 00:07:16;;;;;;;20.30;12.88;;;16.00;69.80;;;;;;4986614;28;20050;-16
2022/11/26 00:09:41;;;;;;;21.98;13.43;;;16.00;69.70;;;;;;4985469;28;20046;-16
2022/11/26 00:12:27;;;;;;;23.98;13.55;;;16.00;69.70;;;;;;4984813;28;20422;-16
2022/11/26 00:14:53;;;;;;;21.88;13.07;;;16.00;69.70;;;;;;4984240;28;20088;-17
2022/11/26 00:17:19;;;;;;;20.08;11.70;;;16.00;69.60;;;;;;4982900;28;20030;-16
2022/11/26 00:19:44;;;;;;;24.15;14.05;;;16.00;69.80;;;;;;4985791;28;20042;-16
2022/11/26 00:22:24;;;;;;;24.05;13.70;;;16.00;69.80;;;;;;4986846;28;20023;-17
2022/11/26 00:24:50;;;;;;;25.73;15.35;;;16.00;69.80;;;;;;4983425;28;20569;-16
2022/11/26 00:27:15;;;;;;;26.70;15.85;;;16.00;69.80;;;;;;5013576;28;20046;-17
2022/11/26 00:29:41;;;;;;;28.33;15.73;;;16.00;69.80;;;;;;4985345;28;20504;-17
2022/11/26 00:32:23;;;;;;;25.83;15.65;;;16.00;69.70;;;;;;4987337;28;20113;-16
2022/11/26 00:34:49;;;;;;;27.55;16.98;;;16.00;69.50;;;;;;4981445;28;20530;-16
2022/11/26 00:37:23;;;;;;;30.65;17.65;;;16.00;69.60;;;;;;4986376;28;20042;-16
2022/11/26 00:39:48;;;;;;;;;;;16.00;69.60;;;;;;4981922;28;20085;-16
2022/11/26 00:42:14;;;;;;;27.48;15.40;;;16.00;69.30;;;;;;4985111;28;19933;-16
2022/11/26 00:44:41;;;;;;;34.13;17.85;;;16.00;69.70;;;;;;4986297;28;20108;-17
2022/11/26 00:47:08;;;;;;;31.63;17.45;;;15.90;69.80;;;;;;4986899;28;20042;-23
2022/11/26 00:49:34;;;;;;;30.33;17.35;;;16.00;69.90;;;;;;4984667;28;20041;-25
2022/11/26 00:51:59;;;;;;;34.20;18.00;;;15.90;70.00;;;;;;4985993;28;20076;-22
2022/11/26 00:54:25;;;;;;;36.20;19.27;;;15.90;69.90;;;;;;4986738;28;20141;-22
2022/11/26 00:56:50;;;;;;;34.75;17.80;;;15.90;69.80;;;;;;4983452;28;20132;-22
2022/11/26 00:59:20;;;;;;;33.90;19.20;;;16.00;69.70;;;;;;4986322;28;20428;-22
2022/11/26 01:01:46;;;;;;;34.08;18.55;;;16.00;69.70;;;;;;4980339;28;20062;-22
2022/11/26 01:04:11;;;;;;;33.28;18.92;;;16.00;69.70;;;;;;4987583;28;20085;-22
2022/11/26 01:06:39;;;;;;;32.83;17.73;;;16.00;69.70;;;;;;4982435;28;20492;-24
2022/11/26 01:09:05;;;;;;;38.33;20.23;;;16.00;69.80;;;;;;4986850;28;20038;-22
2022/11/26 01:11:31;;;;;;;37.53;19.73;;;16.00;69.80;;;;;;4982732;28;20062;-17
2022/11/26 01:13:56;;;;;;;41.00;20.90;;;16.00;69.50;;;;;;4985796;28;20073;-25
2022/11/26 01:16:27;;;;;;;42.78;22.10;;;16.00;69.70;;;;;;4986078;28;20093;-23
2022/11/26 01:18:54;;;;;;;41.65;21.80;;;15.90;69.90;;;;;;4985585;28;20050;-23
2022/11/26 01:21:21;;;;;;;43.10;21.63;;;15.90;69.90;;;;;;4986003;28;20069;-22
2022/11/26 01:23:46;;;;;;;45.55;22.98;;;16.00;69.80;;;;;;4981212;28;20144;-22
2022/11/26 01:26:16;;;;;;;44.17;22.63;;;15.90;69.90;;;;;;4986340;28;20042;-24
2022/11/26 01:28:42;;;;;;;40.33;20.88;;;15.90;70.70;;;;;;4990098;28;20035;-23
2022/11/26 01:31:16;;;;;;;46.83;21.90;;;16.00;69.80;;;;;;4990591;28;20034;-22
2022/11/26 01:33:42;;;;;;;44.60;22.42;;;16.00;69.50;;;;;;4986542;28;20038;-26
2022/11/26 01:36:18;;;;;;;45.00;22.33;;;15.90;69.70;;;;;;4989845;28;20052;-24
2022/11/26 01:38:43;;;;;;;42.00;20.63;;;15.90;69.80;;;;;;4987986;28;20047;-22
2022/11/26 01:41:31;;;;;;;40.67;21.05;;;15.90;69.70;;;;;;4987084;28;20055;-26
2022/11/26 01:43:56;;;;;;;45.17;22.13;;;15.90;69.80;;;;;;4985131;28;20038;-23
2022/11/26 01:46:22;;;;;;;44.03;22.35;;;15.90;69.90;;;;;;5017305;28;20034;-23
2022/11/26 01:48:48;;;;;;;43.28;22.10;;;15.90;70.00;;;;;;4989829;28;20046;-22
2022/11/26 01:51:16;;;;;;;44.95;22.90;;;15.80;69.90;;;;;;4989507;28;20046;-22
2022/11/26 01:53:46;;;;;;;44.92;22.90;;;15.80;70.00;;;;;;4970531;28;20086;-25
2022/11/26 01:56:31;;;;;;;48.35;24.80;;;15.80;69.90;;;;;;4987411;28;20054;-23
2022/11/26 01:59:02;;;;;;;47.10;23.83;;;15.90;69.80;;;;;;4986557;28;20050;-24
2022/11/26 02:01:27;;;;;;;54.05;24.83;;;15.90;69.90;;;;;;4987429;28;20125;-26
2022/11/26 02:03:59;;;;;;;50.55;24.77;;;15.90;69.80;;;;;;4986870;28;20134;-26
2022/11/26 02:06:29;;;;;;;51.60;24.25;;;15.90;69.70;;;;;;4972966;28;20058;-25
2022/11/26 02:08:55;;;;;;;47.65;24.05;;;15.90;69.80;;;;;;4989339;28;20057;-22
2022/11/26 02:11:22;;;;;;;53.78;25.70;;;15.90;69.70;;;;;;4991055;28;20046;-27
2022/11/26 02:13:49;;;;;;;50.05;24.88;;;15.90;69.60;;;;;;4988718;28;20046;-23
2022/11/26 02:16:30;;;;;;;50.10;23.92;;;15.90;69.60;;;;;;4986042;28;20057;-22
2022/11/26 02:19:15;;;;;;;53.13;24.55;;;15.90;69.80;;;;;;4988389;28;20046;-22
2022/11/26 02:21:41;;;;;;;51.53;24.92;;;15.80;69.80;;;;;;4987100;28;20559;-25
2022/11/26 02:24:30;;;;;;;48.55;23.60;;;15.80;69.90;;;;;;4987769;28;20133;-23
2022/11/26 02:27:00;;;;;;;49.47;24.55;;;15.80;69.80;;;;;;4987337;28;20065;-22
2022/11/26 02:30:08;;;;;;;50.78;23.92;;;15.90;69.50;;;;;;4987018;28;20459;-22
2022/11/26 02:32:45;;;;;;;60.97;26.75;;;16.00;69.40;;;;;;4946636;28;20047;-24
2022/11/26 02:35:26;;;;;;;54.90;25.20;;;15.90;69.40;;;;;;4948989;29;20127;-24
2022/11/26 02:37:59;;;;;;;57.28;27.80;;;15.90;69.40;;;;;;4945878;28;20051;-22
2022/11/26 02:40:25;;;;;;;54.90;26.33;;;16.00;69.40;;;;;;4948739;29;20162;-25
2022/11/26 02:42:51;;;;;;;53.50;25.45;;;15.90;69.20;;;;;;4947534;28;20110;-24
2022/11/26 02:45:22;;;;;;;53.60;24.98;;;15.90;69.40;;;;;;4947902;28;20425;-23
2022/11/26 02:47:49;;;;;;;57.35;26.80;;;15.90;69.40;;;;;;4929995;29;20056;-21
2022/11/26 02:50:33;;;;;;;56.50;25.55;;;15.90;69.60;;;;;;4942477;28;20090;-22
2022/11/26 02:52:59;;;;;;;;;;;15.90;69.40;;;;;;4930605;28;20052;-24
2022/11/26 02:55:30;;;;;;;52.33;25.00;;;15.90;69.30;;;;;;4943322;28;20030;-24
2022/11/26 02:57:56;;;;;;;57.67;27.00;;;15.80;69.50;;;;;;4946654;28;20051;-26
2022/11/26 03:00:21;;;;;;;58.20;26.80;;;15.90;69.40;;;;;;4930184;28;20047;-22
2022/11/26 03:02:55;;;;;;;57.60;26.50;;;16.00;69.10;;;;;;4928325;28;20102;-25
2022/11/26 03:05:20;;;;;;;56.80;25.98;;;15.90;69.30;;;;;;4941822;28;20075;-22
2022/11/26 03:07:47;;;;;;;58.78;26.45;;;15.90;69.20;;;;;;4986257;28;20076;-22
2022/11/26 03:10:13;;;;;;;59.83;26.63;;;16.00;69.30;;;;;;4972099;28;20050;-23
2022/11/26 03:12:39;;;;;;;55.08;25.58;;;15.90;69.40;;;;;;4986237;28;20051;-23
2022/11/26 03:15:05;;;;;;;59.95;28.05;;;15.90;69.40;;;;;;4987769;28;20133;-23
2022/11/26 03:17:30;;;;;;;54.33;25.13;;;15.90;69.60;;;;;;4987723;28;20035;-27
2022/11/26 03:19:56;;;;;;;58.38;25.75;;;16.00;69.30;;;;;;4988250;28;20392;-24
2022/11/26 03:22:21;;;;;;;57.72;26.58;;;15.90;69.30;;;;;;4988169;28;20129;-23
2022/11/26 03:24:47;;;;;;;59.28;27.52;;;16.00;69.10;;;;;;4988648;28;20058;-26
2022/11/26 03:27:12;;;;;;;62.58;28.70;;;16.00;69.10;;;;;;4986052;28;20050;-24
2022/11/26 03:29:38;;;;;;;58.92;26.38;;;15.80;69.40;;;;;;4985053;28;20577;-20
2022/11/26 03:32:04;;;;;;;61.20;26.98;;;15.80;69.70;;;;;;4988168;28;20050;-23
2022/11/26 03:34:29;;;;;;;57.15;25.00;;;15.80;69.60;;;;;;4987969;28;20043;-22
2022/11/26 03:36:55;;;;;;;57.88;26.77;;;15.80;69.70;;;;;;4987578;28;20623;-24
2022/11/26 03:39:20;;;;;;;59.60;26.63;;;15.80;69.70;;;;;;4985527;28;20125;-25
2022/11/26 03:41:46;;;;;;;61.08;27.67;;;15.80;69.60;;;;;;4986813;28;20419;-24
2022/11/26 03:44:12;;;;;;;61.25;25.90;;;15.80;69.70;;;;;;4987858;28;20100;-27
2022/11/26 03:46:37;;;;;;;60.03;26.40;;;15.90;70.30;;;;;;4985639;28;20062;-25
2022/11/26 03:49:03;;;;;;;57.80;25.65;;;15.90;69.50;;;;;;4987781;28;20070;-23
2022/11/26 03:51:28;;;;;;;64.05;27.83;;;15.80;69.50;;;;;;4988339;28;20037;-24
2022/11/26 03:53:54;;;;;;;59.35;26.95;;;15.80;69.60;;;;;;4985403;28;20442;-24
2022/11/26 03:56:20;;;;;;;58.17;27.05;;;15.80;69.50;;;;;;4988959;28;20042;-23
2022/11/26 03:58:45;;;;;;;63.95;27.52;;;15.90;69.40;;;;;;4986999;28;20045;-32
2022/11/26 04:01:11;;;;;;;59.38;26.83;;;15.90;69.10;;;;;;4987025;28;20664;-22
2022/11/26 04:03:37;;;;;;;62.90;27.20;;;15.90;69.40;;;;;;4987983;28;20050;-22
2022/11/26 04:06:03;;;;;;;65.55;28.98;;;15.80;69.40;;;;;;4988251;28;20046;-23
2022/11/26 04:08:28;;;;;;;65.45;28.10;;;15.70;69.70;;;;;;4987018;28;20441;-22
2022/11/26 04:10:54;;;;;;;62.92;28.45;;;15.80;69.80;;;;;;4987136;28;20101;-23
2022/11/26 04:13:19;;;;;;;66.40;28.23;;;15.80;69.70;;;;;;4986265;28;20034;-23
2022/11/26 04:15:46;;;;;;;60.47;25.45;;;15.90;69.40;;;;;;4987243;28;20049;-23
2022/11/26 04:18:11;;;;;;;67.22;28.23;;;15.80;69.50;;;;;;4985589;28;20558;-22
2022/11/26 04:20:37;;;;;;;62.33;26.27;;;15.80;69.60;;;;;;4986944;28;20046;-23
2022/11/26 04:23:02;;;;;;;65.78;29.05;;;15.70;69.70;;;;;;4986302;28;20511;-23
2022/11/26 04:25:28;;;;;;;58.72;25.83;;;15.80;69.70;;;;;;4982667;28;20046;-23
2022/11/26 04:27:55;;;;;;;69.10;29.77;;;15.70;69.60;;;;;;4985831;28;20065;-22
2022/11/26 04:30:21;;;;;;;63.95;27.08;;;15.70;69.60;;;;;;4986663;28;20054;-25
2022/11/26 04:32:46;;;;;;;62.33;26.88;;;15.70;69.80;;;;;;4984150;28;20046;-23
2022/11/26 04:35:12;;;;;;;62.03;26.70;;;15.70;69.50;;;;;;4985376;28;20077;-22
2022/11/26 04:37:37;;;;;;;62.72;26.92;;;15.70;69.60;;;;;;4987195;28;20780;-26
2022/11/26 04:40:03;;;;;;;64.85;28.33;;;15.80;69.60;;;;;;4987286;28;20073;-23
2022/11/26 04:42:29;;;;;;;64.35;27.50;;;15.70;70.40;;;;;;4986128;28;20125;-24
2022/11/26 04:44:54;;;;;;;57.50;25.73;;;15.70;69.70;;;;;;4987301;28;20062;-27
2022/11/26 04:47:20;;;;;;;59.72;26.55;;;15.70;69.70;;;;;;4983143;28;20038;-23
2022/11/26 04:49:45;;;;;;;68.00;27.70;;;15.70;69.60;;;;;;4986697;28;20046;-22
2022/11/26 04:52:11;;;;;;;65.50;26.70;;;15.80;69.50;;;;;;4986885;28;20046;-23
2022/11/26 04:54:37;;;;;;;58.83;24.65;;;15.80;69.80;;;;;;4986529;28;20034;-22
2022/11/26 04:57:02;;;;;;;62.00;25.90;;;15.80;69.50;;;;;;4983916;28;20141;-25
2022/11/26 04:59:28;;;;;;;58.78;24.95;;;15.70;69.70;;;;;;4986404;28;20046;-24
2022/11/26 05:01:54;;;;;;;64.45;26.67;;;15.70;69.70;;;;;;4986506;28;20132;-22
2022/11/26 05:04:19;;;;;;;61.35;26.15;;;15.70;69.80;;;;;;4987257;28;20069;-22
2022/11/26 05:06:45;;;;;;;60.25;26.60;;;15.60;69.80;;;;;;4982322;28;20058;-22
2022/11/26 05:09:10;;;;;;;60.58;26.02;;;15.70;69.80;;;;;;4984034;28;20042;-22
2022/11/26 05:11:36;;;;;;;62.30;25.13;;;15.70;69.70;;;;;;4986054;28;20129;-23
2022/11/26 05:14:02;;;;;;;60.60;26.00;;;15.70;69.70;;;;;;4985490;28;20038;-23
2022/11/26 05:16:27;;;;;;;61.22;25.45;;;15.60;69.70;;;;;;4982994;28;20610;-23
2022/11/26 05:18:53;;;;;;;64.82;26.05;;;15.70;69.60;;;;;;4985215;28;20031;-25
2022/11/26 05:21:18;;;;;;;57.65;25.02;;;15.70;69.60;;;;;;4984903;28;20113;-22
2022/11/26 05:23:44;;;;;;;57.05;24.08;;;15.70;69.50;;;;;;4984240;28;20053;-22
2022/11/26 05:26:09;;;;;;;53.95;23.83;;;15.60;69.70;;;;;;4984601;28;20073;-22
2022/11/26 05:28:35;;;;;;;54.85;23.55;;;15.60;69.70;;;;;;4986994;28;20447;-25
2022/11/26 05:31:01;;;;;;;56.47;24.08;;;15.70;69.70;;;;;;4986701;28;20043;-24
2022/11/26 05:33:27;;;;;;;55.60;23.73;;;15.60;69.70;;;;;;4985661;28;20558;-22
2022/11/26 05:35:52;;;;;;;58.55;25.35;;;15.70;70.50;;;;;;4984723;28;20058;-23
2022/11/26 05:38:18;;;;;;;57.72;23.30;;;15.60;69.70;;;;;;4985497;28;20046;-22
2022/11/26 05:40:43;;;;;;;57.72;24.08;;;15.70;69.50;;;;;;5015809;28;20118;-24
2022/11/26 05:43:09;;;;;;;52.17;23.30;;;15.60;69.70;;;;;;4985384;28;20419;-24
2022/11/26 05:45:34;;;;;;;50.58;23.30;;;15.60;69.70;;;;;;4987028;28;20046;-22
2022/11/26 05:48:00;;;;;;;57.85;23.50;;;15.60;69.80;;;;;;4984734;28;20499;-22
2022/11/26 05:50:26;;;;;;;55.17;22.92;;;15.60;69.70;;;;;;4986339;28;20048;-24
2022/11/26 05:52:51;;;;;;;52.33;22.10;;;15.60;69.60;;;;;;4982260;28;20108;-22
2022/11/26 05:55:17;;;;;;;57.63;23.98;;;15.60;69.80;;;;;;4984238;28;20399;-23
2022/11/26 05:57:43;;;;;;;53.60;22.05;;;15.60;69.80;;;;;;4985255;28;20042;-25
2022/11/26 06:00:09;;;;;;;54.25;22.25;;;15.60;69.60;;;;;;4986127;28;20904;-23
2022/11/26 06:02:35;;;;;;;52.25;22.25;;;15.60;69.70;;;;;;4985496;28;20034;-22
2022/11/26 06:05:01;;;;;;;51.85;22.30;;;15.60;69.90;;;;;;4983724;28;20095;-22
2022/11/26 06:07:26;;;;;;;55.78;23.17;;;15.60;69.70;;;;;;4985192;28;20529;-24
2022/11/26 06:09:52;;;;;;;49.20;21.15;;;15.60;69.70;;;;;;4632948;28;9999704;-20
2022/11/26 06:12:17;;;;;;;57.08;23.80;;;15.60;69.80;;;;;;4971202;28;20785;-23
2022/11/26 06:14:43;;;;;;;57.20;23.55;;;15.70;69.30;;;;;;4982069;28;20038;-23
2022/11/26 06:17:09;;;;;;;52.75;22.25;;;15.60;69.60;;;;;;4979470;28;20050;-25
2022/11/26 06:19:34;;;;;;;49.63;21.08;;;15.60;69.50;;;;;;4974708;28;20046;-25
2022/11/26 06:22:00;;;;;;;49.75;21.63;;;15.70;69.70;;;;;;4629783;28;10000464;-24
2022/11/26 06:24:25;;;;;;;51.63;22.92;;;15.60;69.80;;;;;;4981669;28;20065;-23
2022/11/26 06:26:51;;;;;;;48.70;20.92;;;15.60;70.00;;;;;;4983822;28;20527;-24
2022/11/26 06:29:16;;;;;;;47.30;20.38;;;15.60;69.90;;;;;;4982608;28;20042;-23
2022/11/26 06:31:42;;;;;;;50.65;21.50;;;15.60;69.90;;;;;;4984436;28;20581;-21
2022/11/26 06:34:08;;;;;;;49.17;21.30;;;15.60;70.00;;;;;;4984009;28;20057;-23
2022/11/26 06:36:33;;;;;;;60.08;24.60;;;15.60;70.00;;;;;;4984509;28;20165;-22
2022/11/26 06:38:59;;;;;;;52.33;23.70;;;15.80;69.90;;;;;;4978945;28;20073;-22
2022/11/26 06:41:25;;;;;;;50.72;20.75;;;15.70;70.30;;;;;;4981995;28;20133;-23
2022/11/26 06:43:50;;;;;;;48.75;21.23;;;15.70;69.80;;;;;;4980408;28;20137;-22
2022/11/26 06:46:16;;;;;;;43.20;18.55;;;15.60;70.00;;;;;;4985015;28;20073;-22
2022/11/26 06:48:41;;;;;;;51.45;21.83;;;15.60;70.00;;;;;;4982478;28;20434;-23
2022/11/26 06:51:13;;;;;;;53.05;21.60;;;15.70;69.60;;;;;;4981080;28;20100;-23
2022/11/26 06:53:39;;;;;;;45.45;20.20;;;15.70;69.60;;;;;;4983998;28;20092;-22
2022/11/26 06:56:06;;;;;;;42.88;18.60;;;15.70;69.70;;;;;;4977296;28;20043;-22
2022/11/26 06:58:32;;;;;;;43.17;18.83;;;15.60;69.80;;;;;;4982427;28;20030;-22
2022/11/26 07:00:57;;;;;;;38.67;17.48;;;15.60;69.90;;;;;;4983133;28;20046;-23
2022/11/26 07:03:23;;;;;;;36.35;16.60;;;15.60;69.90;;;;;;4983265;28;20046;-23
2022/11/26 07:05:49;;;;;;;41.80;17.20;;;15.60;70.00;;;;;;4981918;28;20050;-21
2022/11/26 07:08:15;;;;;;;37.05;15.80;;;15.60;70.20;;;;;;4981411;28;20452;-24
2022/11/26 07:10:40;;;;;;;35.33;16.10;;;15.60;70.00;;;;;;4978847;28;20050;-21
2022/11/26 07:13:06;;;;;;;31.23;16.00;;;15.60;69.80;;;;;;4976731;28;20124;-22
2022/11/26 07:15:31;;;;;;;37.83;18.42;;;15.60;69.90;;;;;;4980928;28;20490;-22
2022/11/26 07:17:57;;;;;;;35.53;15.50;;;15.60;70.10;;;;;;4978981;28;20101;-24
2022/11/26 07:20:23;;;;;;;34.30;14.52;;;15.70;69.60;;;;;;4979630;28;20513;-23
2022/11/26 07:22:48;;;;;;;32.47;15.02;;;15.70;69.50;;;;;;4981013;28;20111;-23
2022/11/26 07:25:15;;;;;;;29.45;14.10;;;15.70;69.60;;;;;;4981266;28;20134;-34
2022/11/26 07:27:41;;;;;;;31.70;13.75;;;15.60;69.70;;;;;;4980106;28;20043;-23
2022/11/26 07:30:07;;;;;;;28.55;12.93;;;15.80;69.40;;;;;;4969414;28;20050;-22
2022/11/26 07:32:33;;;;;;;29.85;13.10;;;15.80;69.40;;;;;;4965927;28;20034;-24
2022/11/26 07:34:59;;;;;;;27.02;12.90;;;15.70;69.40;;;;;;4983307;28;20700;-23
2022/11/26 07:37:24;;;;;;;25.55;12.75;;;15.70;69.60;;;;;;4982874;28;20035;-23
2022/11/26 07:39:50;;;;;;;27.83;13.27;;;15.70;69.70;;;;;;4983017;28;20038;-29
2022/11/26 07:42:16;;;;;;;25.05;12.75;;;15.70;69.80;;;;;;4976910;28;20122;-29
2022/11/26 07:44:41;;;;;;;24.52;11.57;;;15.70;69.80;;;;;;4982825;28;20587;-23
2022/11/26 07:47:07;;;;;;;25.48;11.57;;;15.70;69.80;;;;;;4977928;28;20043;-23
2022/11/26 07:49:32;;;;;;;22.70;11.25;;;15.70;69.80;;;;;;4979177;28;20026;-26
2022/11/26 07:51:58;;;;;;;21.80;10.60;;;15.70;69.70;;;;;;4981961;28;20508;-22
2022/11/26 07:54:23;;;;;;;19.88;10.82;;;15.70;69.80;;;;;;4976414;28;20069;-22
2022/11/26 07:56:49;;;;;;;20.15;10.18;;;15.80;69.80;;;;;;4977814;28;20047;-26
2022/11/26 07:59:14;;;;;;;26.75;10.80;;;15.80;70.10;;;;;;4981128;28;20089;-22
2022/11/26 08:01:40;;;;;;;18.50;10.57;;;15.70;70.10;;;;;;4976744;28;20642;-25
2022/11/26 08:04:06;;;;;;;20.55;10.43;;;15.70;70.10;;;;;;4996633;28;20058;-22
2022/11/26 08:06:31;;;;;;;23.13;11.43;;;15.70;70.30;;;;;;4977435;28;20070;-24
2022/11/26 08:09:01;;;;;;;21.50;10.48;;;15.70;70.40;;;;;;4977006;28;20052;-24
2022/11/26 08:11:28;;;;;;;20.58;10.85;;;15.70;70.50;;;;;;4980927;28;20046;-23
2022/11/26 08:13:58;;;;;;;18.40;9.75;;;15.90;70.30;;;;;;4982592;28;20050;-23
2022/11/26 08:16:23;;;;;;;20.42;10.43;;;15.70;70.50;;;;;;4978649;28;20516;-21
2022/11/26 08:18:53;;;;;;;17.27;9.52;;;16.00;69.50;;;;;;4976624;28;20057;-23
2022/11/26 08:21:19;;;;;;;19.08;9.60;;;15.80;69.90;;;;;;4975782;28;20054;-22
2022/11/26 08:23:44;;;;;;;14.80;9.02;;;15.90;69.80;;;;;;4973400;28;20047;-22
2022/11/26 08:26:11;;;;;;;16.17;8.65;;;15.90;69.50;;;;;;4978137;28;20050;-23
2022/11/26 08:28:37;;;;;;;17.35;8.57;;;16.00;70.30;;;;;;4983064;28;20571;-23
2022/11/26 08:31:03;;;;;;;12.68;8.38;;;16.00;69.40;;;;;;4981830;28;20044;-23
2022/11/26 08:33:29;;;;;;;15.48;8.63;;;16.00;69.40;;;;;;4976180;28;20045;-21
2022/11/26 08:35:55;;;;;;;14.05;8.35;;;16.00;69.40;;;;;;4980496;28;20031;-26
2022/11/26 08:38:20;;;;;;;16.13;8.45;;;16.10;69.10;;;;;;4979241;28;20061;-23
2022/11/26 08:40:46;;;;;;;11.98;7.57;;;16.20;68.70;;;;;;4979796;28;20038;-25
2022/11/26 08:43:11;;;;;;;14.75;7.88;;;16.20;68.50;;;;;;4983067;28;20062;-22
2022/11/26 08:45:37;;;;;;;11.20;7.32;;;16.10;68.80;;;;;;4981752;28;20043;-22
2022/11/26 08:48:03;;;;;;;13.05;7.18;;;16.20;68.60;;;;;;4983926;28;20078;-23
2022/11/26 08:50:28;;;;;;;15.63;7.13;;;16.20;68.50;;;;;;4979201;28;20121;-22
2022/11/26 08:52:54;;;;;;;17.38;7.50;;;16.10;68.50;;;;;;4978623;28;20061;-23
2022/11/26 08:55:20;;;;;;;8.75;6.18;;;16.10;68.70;;;;;;4980506;28;20054;-22
2022/11/26 08:57:46;;;;;;;12.30;7.18;;;16.10;68.80;;;;;;4981304;28;20534;-24
2022/11/26 09:00:12;;;;;;;9.93;6.35;;;16.00;69.10;;;;;;4979840;28;20380;-22
2022/11/26 09:02:37;;;;;;;12.18;6.70;;;16.00;69.30;;;;;;4981081;28;20038;-22
2022/11/26 09:05:03;;;;;;;8.80;6.15;;;16.10;68.90;;;;;;4980949;28;20141;-23
2022/11/26 09:07:29;;;;;;;10.23;5.85;;;16.00;69.20;;;;;;4979462;28;20042;-24
2022/11/26 09:09:55;;;;;;;9.13;5.75;;;16.00;70.10;;;;;;4980754;28;20121;-22
2022/11/26 09:12:20;;;;;;;8.68;5.65;;;16.00;69.40;;;;;;4982226;28;20133;-23
2022/11/26 09:14:46;;;;;;;11.07;5.88;;;16.00;69.50;;;;;;4981752;28;20507;-24
2022/11/26 09:17:11;;;;;;;6.88;5.20;;;16.10;69.30;;;;;;4977781;28;20118;-21
2022/11/26 09:19:37;;;;;;;7.18;5.65;;;16.10;69.20;;;;;;4982568;28;20065;-23
2022/11/26 09:22:03;;;;;;;8.50;5.53;;;16.00;69.20;;;;;;4983002;28;20058;-22
2022/11/26 09:24:28;;;;;;;11.50;5.60;;;16.00;69.50;;;;;;4979037;28;20082;-22
2022/11/26 09:26:54;;;;;;;7.88;5.50;;;16.10;69.50;;;;;;4978243;28;20043;-22
2022/11/26 09:29:21;;;;;;;6.45;5.13;;;16.10;69.40;;;;;;4976948;28;20549;-21
2022/11/26 09:31:46;;;;;;;9.07;4.93;;;16.10;69.20;;;;;;4981893;28;20161;-22
2022/11/26 09:34:12;;;;;;;7.95;5.35;;;16.20;69.30;;;;;;4980648;28;20046;-23
2022/11/26 09:36:38;;;;;;;7.65;4.70;;;16.10;69.30;;;;;;4981278;28;20030;-31
2022/11/26 09:39:03;;;;;;;7.03;4.70;;;16.20;69.50;;;;;;4978614;28;20034;-22
2022/11/26 09:41:49;;;;;;;9.70;5.13;;;16.30;69.50;;;;;;4984168;28;20078;-25
2022/11/26 09:44:26;;;;;;;7.03;4.75;;;16.20;69.00;;;;;;4977976;28;20539;-21
2022/11/26 09:46:51;;;;;;;5.35;4.65;;;16.20;69.10;;;;;;4981720;28;20098;-23
2022/11/26 09:49:17;;;;;;;5.20;4.53;;;16.20;69.20;;;;;;4985505;28;20034;-24
2022/11/26 09:51:44;;;;;;;7.70;4.80;;;16.30;69.00;;;;;;4983991;28;20120;-23
2022/11/26 09:54:20;;;;;;;7.10;4.45;;;16.30;68.90;;;;;;4981149;28;20043;-22
2022/11/26 09:56:48;;;;;;;6.38;4.68;;;16.30;68.80;;;;;;4980711;28;20083;-22
2022/11/26 09:59:15;;;;;;;5.43;4.07;;;16.40;68.80;;;;;;4981463;28;20066;-21
2022/11/26 10:01:41;;;;;;;7.97;4.50;;;16.40;69.00;;;;;;4997124;28;20052;-25
2022/11/26 10:04:07;;;;;;;5.43;4.07;;;16.30;69.20;;;;;;4978830;28;20581;-20
2022/11/26 10:06:40;;;;;;;5.10;3.92;;;16.30;69.20;;;;;;4983491;28;20149;-23
2022/11/26 10:09:15;;;;;;;5.57;4.28;;;16.30;69.40;;;;;;4979603;28;20042;-21
2022/11/26 10:12:12;;;;;;;8.80;5.05;;;16.40;69.30;;;;;;5013628;28;20042;-22
2022/11/26 10:15:02;;;;;;;9.20;5.18;;;16.30;69.30;;;;;;4981853;28;20046;-22
2022/11/26 10:17:49;;;;;;;11.48;6.68;;;16.30;69.40;;;;;;4979940;28;20121;-24
2022/11/26 10:20:33;;;;;;;9.60;5.95;;;16.40;69.60;;;;;;4982031;28;20045;-22
2022/11/26 10:23:11;;;;;;;10.52;6.20;;;16.40;69.50;;;;;;4981169;28;20057;-22
2022/11/26 10:26:08;;;;;;;10.10;5.10;;;16.50;69.20;;;;;;4983185;28;20042;-21
2022/11/26 10:28:47;;;;;;;7.32;5.55;;;16.40;68.80;;;;;;4955590;28;20047;-26
2022/11/26 10:31:18;;;;;;;7.45;5.70;;;16.40;69.30;;;;;;4942265;28;20035;-21
2022/11/26 10:33:52;;;;;;;7.20;5.47;;;16.40;69.10;;;;;;4943121;28;20673;-22
2022/11/26 10:36:22;;;;;;;7.68;6.00;;;16.50;68.90;;;;;;4956133;28;20058;-24
2022/11/26 10:38:47;;;;;;;8.98;5.72;;;16.50;69.00;;;;;;4925292;28;20143;-25
2022/11/26 10:41:13;;;;;;;9.95;5.20;;;16.50;69.30;;;;;;4928135;29;20121;-21
2022/11/26 10:43:38;;;;;;;7.95;5.43;;;16.50;69.20;;;;;;4955987;28;20058;-22
2022/11/26 10:46:04;;;;;;;6.07;5.45;;;16.50;69.40;;;;;;4939996;28;21150;-16
2022/11/26 10:48:31;;;;;;;7.72;5.70;;;16.50;70.00;;;;;;4957695;28;20055;-22
2022/11/26 10:51:15;;;;;;;6.25;5.03;;;16.50;70.00;;;;;;4938158;28;20073;-26
2022/11/26 10:53:51;;;;;;;10.73;6.03;;;16.40;70.00;;;;;;4957260;28;20058;-22
2022/11/26 10:56:23;;;;;;;8.25;5.28;;;16.40;70.60;;;;;;4956000;28;20477;-23
2022/11/26 10:58:49;;;;;;;5.95;4.93;;;16.40;70.70;;;;;;4916840;28;20043;-23
2022/11/26 11:01:14;;;;;;;10.85;5.07;;;16.50;70.90;;;;;;4934546;28;20051;-27
2022/11/26 11:03:56;;;;;;;6.60;5.50;;;16.50;70.90;;;;;;4927678;28;20055;-23
2022/11/26 11:06:25;;;;;;;7.88;5.20;;;16.50;72.00;;;;;;5000007;28;20046;-23
2022/11/26 11:08:51;;;;;;;5.40;4.78;;;16.50;71.50;;;;;;4997858;28;20777;-22
2022/11/26 11:11:29;;;;;;;8.02;5.80;;;16.50;71.30;;;;;;4982874;28;20050;-22
2022/11/26 11:13:55;;;;;;;7.28;5.25;;;16.60;71.70;;;;;;4983021;28;20104;-23
2022/11/26 11:16:27;;;;;;;6.90;4.70;;;16.50;72.30;;;;;;4978078;28;20057;-22
2022/11/26 11:18:55;;;;;;;6.50;4.38;;;16.60;72.40;;;;;;4975565;28;20605;-24
2022/11/26 11:21:21;;;;;;;6.85;5.00;;;16.50;72.10;;;;;;4973032;28;20050;-22
2022/11/26 11:23:47;;;;;;;5.35;4.70;;;16.60;71.70;;;;;;4975351;28;20104;-26
2022/11/26 11:26:16;;;;;;;4.80;4.40;;;16.60;71.90;;;;;;4976905;28;20137;-24
2022/11/26 11:28:46;;;;;;;5.60;4.60;;;16.60;71.80;;;;;;4982412;28;20082;-24
2022/11/26 11:31:17;;;;;;;5.10;4.50;;;16.70;71.60;;;;;;4991763;28;20054;-23
2022/11/26 11:33:43;;;;;;;4.60;4.05;;;16.70;71.90;;;;;;4978879;28;20038;-24
2022/11/26 11:36:15;;;;;;;5.00;4.43;;;16.60;72.60;;;;;;4987119;28;20042;-22
2022/11/26 11:38:48;;;;;;;4.13;3.83;;;16.70;71.80;;;;;;4987872;28;20554;-26
2022/11/26 11:41:41;;;;;;;5.57;4.20;;;16.70;71.70;;;;;;4987504;28;20117;-24
2022/11/26 11:44:43;;;;;;;4.10;3.72;;;16.70;72.50;;;;;;4982215;28;20047;-24
2022/11/26 11:47:30;;;;;;;5.50;4.30;;;16.70;72.00;;;;;;4974819;28;20061;-21
2022/11/26 11:50:24;;;;;;;3.88;3.55;;;16.70;71.70;;;;;;4958309;28;20108;-24
2022/11/26 11:52:56;;;;;;;4.82;3.83;;;16.70;71.70;;;;;;4975236;28;20043;-29
2022/11/26 11:55:49;;;;;;;5.65;3.53;;;16.80;71.30;;;;;;4975838;28;20064;-22
2022/11/26 11:58:26;;;;;;;3.75;3.45;;;16.80;71.80;;;;;;4983359;28;20045;-23
2022/11/26 12:00:54;;;;;;;3.85;3.45;;;16.70;71.40;;;;;;4984800;28;20051;-27
2022/11/26 12:03:38;;;;;;;3.60;3.30;;;16.70;71.20;;;;;;4982380;28;20046;-21
2022/11/26 12:06:24;;;;;;;3.85;3.40;;;16.80;71.60;;;;;;4984044;28;20043;-32
2022/11/26 12:08:55;;;;;;;5.50;3.38;;;16.80;71.00;;;;;;4957362;28;20035;-24
2022/11/26 12:11:36;;;;;;;4.05;3.65;;;16.80;70.70;;;;;;4982424;28;20046;-23
2022/11/26 12:14:24;;;;;;;3.92;3.50;;;16.80;71.30;;;;;;4981756;28;22276;-21
2022/11/26 12:16:54;;;;;;;3.92;3.55;;;16.80;71.20;;;;;;4969688;28;20056;-22
2022/11/26 12:19:38;;;;;;;3.65;3.35;;;16.80;70.90;;;;;;4986103;28;20038;-22
2022/11/26 12:22:21;;;;;;;3.95;3.40;;;16.80;70.90;;;;;;4983748;28;20192;-23
2022/11/26 12:25:30;;;;;;;3.38;3.08;;;16.80;70.70;;;;;;4985021;28;20052;-24
2022/11/26 12:28:04;;;;;;;3.10;2.80;;;16.80;70.70;;;;;;4956077;28;20114;-22
2022/11/26 12:30:42;;;;;;;5.10;3.28;;;16.80;70.90;;;;;;4942596;28;20580;-25
2022/11/26 12:33:16;;;;;;;3.20;2.80;;;16.80;70.70;;;;;;4926420;28;20046;-23
2022/11/26 12:35:45;;;;;;;3.75;2.72;;;16.80;70.30;;;;;;4925813;28;20047;-24
2022/11/26 12:38:23;;;;;;;2.90;2.70;;;16.80;70.40;;;;;;4945651;28;20603;-21
2022/11/26 12:40:59;;;;;;;2.92;2.67;;;16.90;71.30;;;;;;4959686;28;20051;-23
2022/11/26 12:43:46;;;;;;;3.17;2.92;;;16.90;70.60;;;;;;4961890;28;20043;-22